sensor_id;sensor_type;location;lat;lon;timestamp;P1;durP1;ratioP1;P2;durP2;ratioP2
18210;SDS011;9231;48.852;9.882;2023-04-25T00:00:49;1.53;;;1.33;;
18210;SDS011;9231;48.852;9.882;2023-04-25T00:03:19;1.83;;;1.57;;
18210;SDS011;9231;48.852;9.882;2023-04-25T00:05:46;1.87;;;1.50;;
18210;SDS011;9231;48.852;9.882;2023-04-25T00:08:12;3.47;;;1.70;;
18210;SDS011;9231;48.852;9.882;2023-04-25T00:10:40;2.87;;;1.60;;
18210;SDS011;9231;48.852;9.882;2023-04-25T00:13:07;4.53;;;1.63;;
18210;SDS011;9231;48.852;9.882;2023-04-25T00:15:34;1.70;;;1.50;;
18210;SDS011;9231;48.852;9.882;2023-04-25T00:18:01;1.40;;;1.30;;
18210;SDS011;9231;48.852;9.882;2023-04-25T00:20:27;2.63;;;1.57;;
18210;SDS011;9231;48.852;9.882;2023-04-25T00:22:55;1.73;;;1.30;;
18210;SDS011;9231;48.852;9.882;2023-04-25T00:25:21;2.90;;;1.50;;
18210;SDS011;9231;48.852;9.882;2023-04-25T00:27:49;2.43;;;1.40;;
18210;SDS011;9231;48.852;9.882;2023-04-25T00:30:18;2.57;;;1.37;;
18210;SDS011;9231;48.852;9.882;2023-04-25T00:32:44;1.40;;;1.30;;
18210;SDS011;9231;48.852;9.882;2023-04-25T00:35:13;4.77;;;2.20;;
18210;SDS011;9231;48.852;9.882;2023-04-25T00:37:39;2.60;;;1.60;;
18210;SDS011;9231;48.852;9.882;2023-04-25T00:40:06;2.10;;;1.50;;
18210;SDS011;9231;48.852;9.882;2023-04-25T00:42:33;2.27;;;1.43;;
18210;SDS011;9231;48.852;9.882;2023-04-25T00:45:01;2.80;;;1.67;;
18210;SDS011;9231;48.852;9.882;2023-04-25T00:47:27;2.03;;;1.40;;
18210;SDS011;9231;48.852;9.882;2023-04-25T00:49:54;2.90;;;1.70;;
18210;SDS011;9231;48.852;9.882;2023-04-25T00:52:21;3.23;;;1.60;;
18210;SDS011;9231;48.852;9.882;2023-04-25T00:54:47;2.00;;;1.50;;
18210;SDS011;9231;48.852;9.882;2023-04-25T00:57:14;1.90;;;1.70;;
18210;SDS011;9231;48.852;9.882;2023-04-25T00:59:40;3.10;;;1.50;;
18210;SDS011;9231;48.852;9.882;2023-04-25T01:02:10;2.10;;;1.53;;
18210;SDS011;9231;48.852;9.882;2023-04-25T01:04:36;2.97;;;1.80;;
18210;SDS011;9231;48.852;9.882;2023-04-25T01:07:03;2.40;;;1.77;;
18210;SDS011;9231;48.852;9.882;2023-04-25T01:09:29;2.63;;;1.30;;
18210;SDS011;9231;48.852;9.882;2023-04-25T01:11:56;3.77;;;1.50;;
18210;SDS011;9231;48.852;9.882;2023-04-25T01:14:22;3.10;;;1.60;;
18210;SDS011;9231;48.852;9.882;2023-04-25T01:16:49;1.73;;;1.37;;
18210;SDS011;9231;48.852;9.882;2023-04-25T01:19:17;1.80;;;1.50;;
18210;SDS011;9231;48.852;9.882;2023-04-25T01:21:45;1.67;;;1.37;;
18210;SDS011;9231;48.852;9.882;2023-04-25T01:24:12;3.77;;;1.50;;
18210;SDS011;9231;48.852;9.882;2023-04-25T01:26:38;2.43;;;1.90;;
18210;SDS011;9231;48.852;9.882;2023-04-25T01:29:06;1.80;;;1.50;;
18210;SDS011;9231;48.852;9.882;2023-04-25T01:31:32;3.17;;;1.67;;
18210;SDS011;9231;48.852;9.882;2023-04-25T01:33:59;2.57;;;1.73;;
18210;SDS011;9231;48.852;9.882;2023-04-25T01:36:26;5.13;;;1.90;;
18210;SDS011;9231;48.852;9.882;2023-04-25T01:38:54;5.63;;;1.50;;
18210;SDS011;9231;48.852;9.882;2023-04-25T01:41:21;1.67;;;1.53;;
18210;SDS011;9231;48.852;9.882;2023-04-25T01:43:48;2.80;;;1.93;;
18210;SDS011;9231;48.852;9.882;2023-04-25T01:46:15;1.70;;;1.50;;
18210;SDS011;9231;48.852;9.882;2023-04-25T01:48:41;1.47;;;1.30;;
18210;SDS011;9231;48.852;9.882;2023-04-25T01:51:08;3.07;;;1.80;;
18210;SDS011;9231;48.852;9.882;2023-04-25T01:53:36;2.30;;;1.23;;
18210;SDS011;9231;48.852;9.882;2023-04-25T01:56:05;2.93;;;1.80;;
18210;SDS011;9231;48.852;9.882;2023-04-25T01:58:31;2.07;;;1.30;;
18210;SDS011;9231;48.852;9.882;2023-04-25T02:00:58;1.80;;;1.33;;
18210;SDS011;9231;48.852;9.882;2023-04-25T02:03:24;2.13;;;1.40;;
18210;SDS011;9231;48.852;9.882;2023-04-25T02:05:51;2.83;;;1.30;;
18210;SDS011;9231;48.852;9.882;2023-04-25T02:08:18;2.07;;;1.43;;
18210;SDS011;9231;48.852;9.882;2023-04-25T02:10:44;3.30;;;1.73;;
18210;SDS011;9231;48.852;9.882;2023-04-25T02:13:12;2.70;;;1.50;;
18210;SDS011;9231;48.852;9.882;2023-04-25T02:15:38;2.20;;;1.30;;
18210;SDS011;9231;48.852;9.882;2023-04-25T02:18:05;3.50;;;1.70;;
18210;SDS011;9231;48.852;9.882;2023-04-25T02:20:32;3.67;;;1.70;;
18210;SDS011;9231;48.852;9.882;2023-04-25T02:22:58;2.90;;;1.77;;
18210;SDS011;9231;48.852;9.882;2023-04-25T02:25:25;2.00;;;1.70;;
18210;SDS011;9231;48.852;9.882;2023-04-25T02:27:52;2.07;;;1.70;;
18210;SDS011;9231;48.852;9.882;2023-04-25T02:30:20;5.87;;;1.70;;
18210;SDS011;9231;48.852;9.882;2023-04-25T02:32:46;1.83;;;1.73;;
18210;SDS011;9231;48.852;9.882;2023-04-25T02:35:13;2.13;;;1.60;;
18210;SDS011;9231;48.852;9.882;2023-04-25T02:37:40;3.83;;;1.60;;
18210;SDS011;9231;48.852;9.882;2023-04-25T02:40:07;1.80;;;1.53;;
18210;SDS011;9231;48.852;9.882;2023-04-25T02:42:33;2.70;;;1.50;;
18210;SDS011;9231;48.852;9.882;2023-04-25T02:45:00;2.77;;;1.30;;
18210;SDS011;9231;48.852;9.882;2023-04-25T02:47:28;2.80;;;1.43;;
18210;SDS011;9231;48.852;9.882;2023-04-25T02:49:54;2.20;;;1.60;;
18210;SDS011;9231;48.852;9.882;2023-04-25T02:52:21;2.37;;;1.40;;
18210;SDS011;9231;48.852;9.882;2023-04-25T02:54:47;3.57;;;1.90;;
18210;SDS011;9231;48.852;9.882;2023-04-25T02:57:14;1.70;;;1.33;;
18210;SDS011;9231;48.852;9.882;2023-04-25T02:59:40;1.60;;;1.50;;
18210;SDS011;9231;48.852;9.882;2023-04-25T03:02:07;3.30;;;2.10;;
18210;SDS011;9231;48.852;9.882;2023-04-25T03:04:34;3.57;;;1.70;;
18210;SDS011;9231;48.852;9.882;2023-04-25T03:07:01;3.77;;;1.70;;
18210;SDS011;9231;48.852;9.882;2023-04-25T03:09:27;1.63;;;1.53;;
18210;SDS011;9231;48.852;9.882;2023-04-25T03:11:54;3.60;;;1.93;;
18210;SDS011;9231;48.852;9.882;2023-04-25T03:14:20;2.43;;;1.67;;
18210;SDS011;9231;48.852;9.882;2023-04-25T03:16:47;3.77;;;1.80;;
18210;SDS011;9231;48.852;9.882;2023-04-25T03:19:13;2.10;;;1.83;;
18210;SDS011;9231;48.852;9.882;2023-04-25T03:21:42;3.93;;;3.53;;
18210;SDS011;9231;48.852;9.882;2023-04-25T03:24:09;2.37;;;1.80;;
18210;SDS011;9231;48.852;9.882;2023-04-25T03:26:36;2.43;;;1.60;;
18210;SDS011;9231;48.852;9.882;2023-04-25T03:29:02;3.37;;;1.80;;
18210;SDS011;9231;48.852;9.882;2023-04-25T03:31:29;4.07;;;2.00;;
18210;SDS011;9231;48.852;9.882;2023-04-25T03:33:55;3.23;;;2.00;;
18210;SDS011;9231;48.852;9.882;2023-04-25T03:36:22;3.03;;;2.20;;
18210;SDS011;9231;48.852;9.882;2023-04-25T03:38:49;6.83;;;2.47;;
18210;SDS011;9231;48.852;9.882;2023-04-25T03:41:16;3.47;;;1.93;;
18210;SDS011;9231;48.852;9.882;2023-04-25T03:43:42;4.20;;;2.00;;
18210;SDS011;9231;48.852;9.882;2023-04-25T03:46:08;2.43;;;2.07;;
18210;SDS011;9231;48.852;9.882;2023-04-25T03:48:35;2.13;;;1.93;;
18210;SDS011;9231;48.852;9.882;2023-04-25T03:51:02;3.10;;;2.23;;
18210;SDS011;9231;48.852;9.882;2023-04-25T03:53:28;5.90;;;3.23;;
18210;SDS011;9231;48.852;9.882;2023-04-25T03:55:56;5.57;;;2.23;;
18210;SDS011;9231;48.852;9.882;2023-04-25T03:58:22;4.30;;;2.30;;
18210;SDS011;9231;48.852;9.882;2023-04-25T04:00:49;3.13;;;1.97;;
18210;SDS011;9231;48.852;9.882;2023-04-25T04:03:15;3.67;;;1.90;;
18210;SDS011;9231;48.852;9.882;2023-04-25T04:05:42;3.00;;;2.07;;
18210;SDS011;9231;48.852;9.882;2023-04-25T04:08:08;2.03;;;1.70;;
18210;SDS011;9231;48.852;9.882;2023-04-25T04:10:35;3.13;;;2.03;;
18210;SDS011;9231;48.852;9.882;2023-04-25T04:13:02;2.87;;;2.20;;
18210;SDS011;9231;48.852;9.882;2023-04-25T04:15:29;2.63;;;2.17;;
18210;SDS011;9231;48.852;9.882;2023-04-25T04:17:57;5.40;;;2.00;;
18210;SDS011;9231;48.852;9.882;2023-04-25T04:20:27;3.77;;;1.83;;
18210;SDS011;9231;48.852;9.882;2023-04-25T04:22:54;4.30;;;2.47;;
18210;SDS011;9231;48.852;9.882;2023-04-25T04:25:20;3.63;;;1.97;;
18210;SDS011;9231;48.852;9.882;2023-04-25T04:27:46;2.20;;;1.97;;
18210;SDS011;9231;48.852;9.882;2023-04-25T04:30:14;5.73;;;2.37;;
18210;SDS011;9231;48.852;9.882;2023-04-25T04:32:41;3.07;;;2.33;;
18210;SDS011;9231;48.852;9.882;2023-04-25T04:35:08;3.00;;;2.43;;
18210;SDS011;9231;48.852;9.882;2023-04-25T04:37:36;2.30;;;1.87;;
18210;SDS011;9231;48.852;9.882;2023-04-25T04:40:06;5.10;;;1.87;;
18210;SDS011;9231;48.852;9.882;2023-04-25T04:42:33;3.33;;;2.30;;
18210;SDS011;9231;48.852;9.882;2023-04-25T04:45:01;3.23;;;2.73;;
18210;SDS011;9231;48.852;9.882;2023-04-25T04:47:29;3.10;;;2.30;;
18210;SDS011;9231;48.852;9.882;2023-04-25T04:49:57;4.53;;;2.40;;
18210;SDS011;9231;48.852;9.882;2023-04-25T04:52:23;2.53;;;2.17;;
18210;SDS011;9231;48.852;9.882;2023-04-25T04:54:50;4.77;;;2.20;;
18210;SDS011;9231;48.852;9.882;2023-04-25T04:57:16;4.57;;;2.27;;
18210;SDS011;9231;48.852;9.882;2023-04-25T04:59:43;2.77;;;2.00;;
18210;SDS011;9231;48.852;9.882;2023-04-25T05:02:09;3.57;;;2.07;;
18210;SDS011;9231;48.852;9.882;2023-04-25T05:04:37;3.00;;;1.90;;
18210;SDS011;9231;48.852;9.882;2023-04-25T05:07:04;2.90;;;2.00;;
18210;SDS011;9231;48.852;9.882;2023-04-25T05:09:30;3.20;;;2.30;;
18210;SDS011;9231;48.852;9.882;2023-04-25T05:11:57;6.40;;;2.30;;
18210;SDS011;9231;48.852;9.882;2023-04-25T05:14:23;5.30;;;2.30;;
18210;SDS011;9231;48.852;9.882;2023-04-25T05:16:50;2.60;;;2.20;;
18210;SDS011;9231;48.852;9.882;2023-04-25T05:19:16;2.57;;;1.90;;
18210;SDS011;9231;48.852;9.882;2023-04-25T05:21:44;2.53;;;1.77;;
18210;SDS011;9231;48.852;9.882;2023-04-25T05:24:11;2.90;;;1.80;;
18210;SDS011;9231;48.852;9.882;2023-04-25T05:26:37;3.20;;;2.20;;
18210;SDS011;9231;48.852;9.882;2023-04-25T05:29:04;2.83;;;1.83;;
18210;SDS011;9231;48.852;9.882;2023-04-25T05:31:31;6.13;;;2.30;;
18210;SDS011;9231;48.852;9.882;2023-04-25T05:33:57;2.77;;;2.00;;
18210;SDS011;9231;48.852;9.882;2023-04-25T05:36:24;3.33;;;1.90;;
18210;SDS011;9231;48.852;9.882;2023-04-25T05:38:52;4.33;;;2.60;;
18210;SDS011;9231;48.852;9.882;2023-04-25T05:41:18;3.37;;;2.00;;
18210;SDS011;9231;48.852;9.882;2023-04-25T05:43:45;4.23;;;2.07;;
18210;SDS011;9231;48.852;9.882;2023-04-25T05:46:13;4.33;;;2.53;;
18210;SDS011;9231;48.852;9.882;2023-04-25T05:48:40;5.83;;;2.30;;
18210;SDS011;9231;48.852;9.882;2023-04-25T05:51:07;6.07;;;2.40;;
18210;SDS011;9231;48.852;9.882;2023-04-25T05:53:33;3.27;;;2.97;;
18210;SDS011;9231;48.852;9.882;2023-04-25T05:56:01;3.87;;;2.40;;
18210;SDS011;9231;48.852;9.882;2023-04-25T05:58:27;3.23;;;2.33;;
18210;SDS011;9231;48.852;9.882;2023-04-25T06:00:54;2.80;;;1.90;;
18210;SDS011;9231;48.852;9.882;2023-04-25T06:03:21;2.13;;;1.93;;
18210;SDS011;9231;48.852;9.882;2023-04-25T06:05:48;2.63;;;1.83;;
18210;SDS011;9231;48.852;9.882;2023-04-25T06:08:14;2.27;;;1.63;;
18210;SDS011;9231;48.852;9.882;2023-04-25T06:10:41;3.37;;;2.20;;
18210;SDS011;9231;48.852;9.882;2023-04-25T06:13:08;4.60;;;2.20;;
18210;SDS011;9231;48.852;9.882;2023-04-25T06:15:35;3.13;;;2.20;;
18210;SDS011;9231;48.852;9.882;2023-04-25T06:18:01;4.53;;;2.53;;
18210;SDS011;9231;48.852;9.882;2023-04-25T06:20:28;5.03;;;2.27;;
18210;SDS011;9231;48.852;9.882;2023-04-25T06:22:54;3.77;;;2.03;;
18210;SDS011;9231;48.852;9.882;2023-04-25T06:25:21;5.20;;;1.90;;
18210;SDS011;9231;48.852;9.882;2023-04-25T06:27:47;3.10;;;2.30;;
18210;SDS011;9231;48.852;9.882;2023-04-25T06:30:15;2.67;;;1.80;;
18210;SDS011;9231;48.852;9.882;2023-04-25T06:32:43;4.43;;;2.80;;
18210;SDS011;9231;48.852;9.882;2023-04-25T06:35:09;4.33;;;2.30;;
18210;SDS011;9231;48.852;9.882;2023-04-25T06:37:36;3.87;;;2.30;;
18210;SDS011;9231;48.852;9.882;2023-04-25T06:40:03;3.00;;;2.20;;
18210;SDS011;9231;48.852;9.882;2023-04-25T06:42:29;2.80;;;2.23;;
18210;SDS011;9231;48.852;9.882;2023-04-25T06:44:56;3.80;;;2.40;;
18210;SDS011;9231;48.852;9.882;2023-04-25T06:47:23;6.17;;;2.87;;
18210;SDS011;9231;48.852;9.882;2023-04-25T06:49:50;4.33;;;2.40;;
18210;SDS011;9231;48.852;9.882;2023-04-25T06:52:17;3.10;;;2.50;;
18210;SDS011;9231;48.852;9.882;2023-04-25T06:57:18;2.13;;;1.63;;
18210;SDS011;9231;48.852;9.882;2023-04-25T06:59:44;3.50;;;3.20;;
18210;SDS011;9231;48.852;9.882;2023-04-25T07:02:11;2.60;;;2.40;;
18210;SDS011;9231;48.852;9.882;2023-04-25T07:04:38;2.47;;;2.10;;
18210;SDS011;9231;48.852;9.882;2023-04-25T07:07:05;2.73;;;2.17;;
18210;SDS011;9231;48.852;9.882;2023-04-25T07:09:31;3.93;;;1.80;;
18210;SDS011;9231;48.852;9.882;2023-04-25T07:11:59;3.77;;;2.50;;
18210;SDS011;9231;48.852;9.882;2023-04-25T07:14:26;2.17;;;1.97;;
18210;SDS011;9231;48.852;9.882;2023-04-25T07:16:52;2.20;;;2.00;;
18210;SDS011;9231;48.852;9.882;2023-04-25T07:19:20;2.83;;;2.30;;
18210;SDS011;9231;48.852;9.882;2023-04-25T07:21:50;3.07;;;2.70;;
18210;SDS011;9231;48.852;9.882;2023-04-25T07:24:16;3.13;;;2.37;;
18210;SDS011;9231;48.852;9.882;2023-04-25T07:26:43;2.97;;;2.57;;
18210;SDS011;9231;48.852;9.882;2023-04-25T07:29:10;3.20;;;2.40;;
18210;SDS011;9231;48.852;9.882;2023-04-25T07:31:36;2.90;;;2.43;;
18210;SDS011;9231;48.852;9.882;2023-04-25T07:34:03;2.73;;;2.33;;
18210;SDS011;9231;48.852;9.882;2023-04-25T07:36:29;3.43;;;2.40;;
18210;SDS011;9231;48.852;9.882;2023-04-25T07:38:57;2.47;;;2.20;;
18210;SDS011;9231;48.852;9.882;2023-04-25T07:41:23;3.47;;;2.50;;
18210;SDS011;9231;48.852;9.882;2023-04-25T07:43:50;2.90;;;1.73;;
18210;SDS011;9231;48.852;9.882;2023-04-25T07:46:16;2.63;;;1.90;;
18210;SDS011;9231;48.852;9.882;2023-04-25T07:48:43;2.30;;;1.80;;
18210;SDS011;9231;48.852;9.882;2023-04-25T07:51:09;1.87;;;1.50;;
18210;SDS011;9231;48.852;9.882;2023-04-25T07:53:36;2.10;;;1.90;;
18210;SDS011;9231;48.852;9.882;2023-04-25T07:56:04;1.90;;;1.70;;
18210;SDS011;9231;48.852;9.882;2023-04-25T07:58:31;2.07;;;1.43;;
18210;SDS011;9231;48.852;9.882;2023-04-25T08:00:57;1.57;;;1.47;;
18210;SDS011;9231;48.852;9.882;2023-04-25T08:03:24;2.83;;;1.90;;
18210;SDS011;9231;48.852;9.882;2023-04-25T08:05:50;3.23;;;2.27;;
18210;SDS011;9231;48.852;9.882;2023-04-25T08:08:17;2.60;;;2.40;;
18210;SDS011;9231;48.852;9.882;2023-04-25T08:10:43;3.27;;;1.53;;
18210;SDS011;9231;48.852;9.882;2023-04-25T08:13:11;2.20;;;2.00;;
18210;SDS011;9231;48.852;9.882;2023-04-25T08:15:37;1.60;;;1.50;;
18210;SDS011;9231;48.852;9.882;2023-04-25T08:18:04;2.00;;;1.60;;
18210;SDS011;9231;48.852;9.882;2023-04-25T08:20:30;2.77;;;1.47;;
18210;SDS011;9231;48.852;9.882;2023-04-25T08:22:57;1.67;;;1.57;;
18210;SDS011;9231;48.852;9.882;2023-04-25T08:25:23;1.57;;;1.47;;
18210;SDS011;9231;48.852;9.882;2023-04-25T08:27:50;2.50;;;1.50;;
18210;SDS011;9231;48.852;9.882;2023-04-25T08:30:18;2.33;;;2.07;;
18210;SDS011;9231;48.852;9.882;2023-04-25T08:32:44;3.33;;;2.03;;
18210;SDS011;9231;48.852;9.882;2023-04-25T08:35:11;1.60;;;1.50;;
18210;SDS011;9231;48.852;9.882;2023-04-25T08:37:37;1.47;;;1.37;;
18210;SDS011;9231;48.852;9.882;2023-04-25T08:40:04;1.87;;;1.60;;
18210;SDS011;9231;48.852;9.882;2023-04-25T08:42:32;1.90;;;1.70;;
18210;SDS011;9231;48.852;9.882;2023-04-25T08:45:01;6.40;;;1.90;;
18210;SDS011;9231;48.852;9.882;2023-04-25T08:47:29;2.00;;;1.80;;
18210;SDS011;9231;48.852;9.882;2023-04-25T08:49:56;2.80;;;1.93;;
18210;SDS011;9231;48.852;9.882;2023-04-25T08:52:22;3.13;;;1.90;;
18210;SDS011;9231;48.852;9.882;2023-04-25T08:54:49;1.80;;;1.47;;
18210;SDS011;9231;48.852;9.882;2023-04-25T08:57:17;1.83;;;1.37;;
18210;SDS011;9231;48.852;9.882;2023-04-25T08:59:44;1.30;;;1.20;;
18210;SDS011;9231;48.852;9.882;2023-04-25T09:02:12;1.73;;;1.20;;
18210;SDS011;9231;48.852;9.882;2023-04-25T09:04:43;1.63;;;1.30;;
18210;SDS011;9231;48.852;9.882;2023-04-25T09:07:10;2.10;;;1.87;;
18210;SDS011;9231;48.852;9.882;2023-04-25T09:09:36;3.10;;;1.50;;
18210;SDS011;9231;48.852;9.882;2023-04-25T09:12:03;2.73;;;1.43;;
18210;SDS011;9231;48.852;9.882;2023-04-25T09:14:29;2.70;;;1.97;;
18210;SDS011;9231;48.852;9.882;2023-04-25T09:16:59;2.60;;;2.40;;
18210;SDS011;9231;48.852;9.882;2023-04-25T09:19:27;8.47;;;2.60;;
18210;SDS011;9231;48.852;9.882;2023-04-25T09:21:55;4.43;;;3.30;;
18210;SDS011;9231;48.852;9.882;2023-04-25T09:24:29;5.53;;;3.20;;
18210;SDS011;9231;48.852;9.882;2023-04-25T09:26:56;3.57;;;3.23;;
18210;SDS011;9231;48.852;9.882;2023-04-25T09:29:28;5.07;;;3.70;;
18210;SDS011;9231;48.852;9.882;2023-04-25T09:31:57;3.60;;;3.23;;
18210;SDS011;9231;48.852;9.882;2023-04-25T09:34:38;5.23;;;4.00;;
18210;SDS011;9231;48.852;9.882;2023-04-25T09:37:06;5.43;;;3.50;;
18210;SDS011;9231;48.852;9.882;2023-04-25T09:39:33;3.57;;;2.93;;
18210;SDS011;9231;48.852;9.882;2023-04-25T09:42:00;3.73;;;3.00;;
18210;SDS011;9231;48.852;9.882;2023-04-25T09:44:26;3.83;;;3.27;;
18210;SDS011;9231;48.852;9.882;2023-04-25T09:46:53;4.80;;;3.47;;
18210;SDS011;9231;48.852;9.882;2023-04-25T09:49:19;3.30;;;2.90;;
18210;SDS011;9231;48.852;9.882;2023-04-25T09:51:53;4.40;;;3.57;;
18210;SDS011;9231;48.852;9.882;2023-04-25T09:54:21;4.97;;;4.20;;
18210;SDS011;9231;48.852;9.882;2023-04-25T09:56:48;4.20;;;3.50;;
18210;SDS011;9231;48.852;9.882;2023-04-25T09:59:14;4.60;;;3.20;;
18210;SDS011;9231;48.852;9.882;2023-04-25T10:01:41;3.90;;;3.13;;
18210;SDS011;9231;48.852;9.882;2023-04-25T10:04:09;5.87;;;3.80;;
18210;SDS011;9231;48.852;9.882;2023-04-25T10:06:36;4.57;;;3.33;;
18210;SDS011;9231;48.852;9.882;2023-04-25T10:09:03;5.03;;;3.63;;
18210;SDS011;9231;48.852;9.882;2023-04-25T10:11:34;4.37;;;3.17;;
18210;SDS011;9231;48.852;9.882;2023-04-25T10:14:01;6.07;;;3.30;;
18210;SDS011;9231;48.852;9.882;2023-04-25T10:16:27;3.93;;;3.33;;
18210;SDS011;9231;48.852;9.882;2023-04-25T10:18:55;3.33;;;2.83;;
18210;SDS011;9231;48.852;9.882;2023-04-25T10:21:21;5.17;;;3.03;;
18210;SDS011;9231;48.852;9.882;2023-04-25T10:23:48;4.10;;;3.03;;
18210;SDS011;9231;48.852;9.882;2023-04-25T10:26:15;3.60;;;3.00;;
18210;SDS011;9231;48.852;9.882;2023-04-25T10:28:56;4.03;;;3.63;;
18210;SDS011;9231;48.852;9.882;2023-04-25T10:31:22;8.43;;;4.13;;
18210;SDS011;9231;48.852;9.882;2023-04-25T10:33:49;4.93;;;4.13;;
18210;SDS011;9231;48.852;9.882;2023-04-25T10:36:18;3.57;;;3.20;;
18210;SDS011;9231;48.852;9.882;2023-04-25T10:38:46;7.03;;;3.80;;
18210;SDS011;9231;48.852;9.882;2023-04-25T10:41:13;4.57;;;3.67;;
18210;SDS011;9231;48.852;9.882;2023-04-25T10:43:40;4.37;;;3.57;;
18210;SDS011;9231;48.852;9.882;2023-04-25T10:46:14;4.60;;;3.50;;
18210;SDS011;9231;48.852;9.882;2023-04-25T10:48:46;4.90;;;3.60;;
18210;SDS011;9231;48.852;9.882;2023-04-25T10:51:16;5.27;;;3.83;;
18210;SDS011;9231;48.852;9.882;2023-04-25T10:53:43;6.23;;;4.10;;
18210;SDS011;9231;48.852;9.882;2023-04-25T10:56:10;4.27;;;3.83;;
18210;SDS011;9231;48.852;9.882;2023-04-25T10:58:41;5.03;;;3.90;;
18210;SDS011;9231;48.852;9.882;2023-04-25T11:01:08;6.10;;;3.93;;
18210;SDS011;9231;48.852;9.882;2023-04-25T11:03:39;5.70;;;2.90;;
18210;SDS011;9231;48.852;9.882;2023-04-25T11:06:17;4.77;;;2.93;;
18210;SDS011;9231;48.852;9.882;2023-04-25T11:08:47;4.60;;;3.40;;
18210;SDS011;9231;48.852;9.882;2023-04-25T11:11:14;4.80;;;3.30;;
18210;SDS011;9231;48.852;9.882;2023-04-25T11:13:44;6.90;;;4.10;;
18210;SDS011;9231;48.852;9.882;2023-04-25T11:16:10;4.97;;;3.60;;
18210;SDS011;9231;48.852;9.882;2023-04-25T11:18:36;4.80;;;3.40;;
18210;SDS011;9231;48.852;9.882;2023-04-25T11:21:05;4.00;;;3.07;;
18210;SDS011;9231;48.852;9.882;2023-04-25T11:23:31;3.43;;;2.70;;
18210;SDS011;9231;48.852;9.882;2023-04-25T11:26:03;2.97;;;2.53;;
18210;SDS011;9231;48.852;9.882;2023-04-25T11:28:30;5.13;;;2.60;;
18210;SDS011;9231;48.852;9.882;2023-04-25T11:30:56;3.57;;;1.80;;
18210;SDS011;9231;48.852;9.882;2023-04-25T11:33:29;1.53;;;1.40;;
18210;SDS011;9231;48.852;9.882;2023-04-25T11:35:58;2.07;;;1.73;;
18210;SDS011;9231;48.852;9.882;2023-04-25T11:38:40;3.53;;;1.67;;
18210;SDS011;9231;48.852;9.882;2023-04-25T11:41:06;2.67;;;2.10;;
18210;SDS011;9231;48.852;9.882;2023-04-25T11:43:33;4.47;;;2.00;;
18210;SDS011;9231;48.852;9.882;2023-04-25T11:45:59;3.53;;;2.10;;
18210;SDS011;9231;48.852;9.882;2023-04-25T11:48:26;1.80;;;1.37;;
18210;SDS011;9231;48.852;9.882;2023-04-25T11:50:53;2.03;;;1.53;;
18210;SDS011;9231;48.852;9.882;2023-04-25T11:53:20;2.57;;;1.90;;
18210;SDS011;9231;48.852;9.882;2023-04-25T11:55:48;3.80;;;1.97;;
18210;SDS011;9231;48.852;9.882;2023-04-25T11:58:14;4.70;;;2.67;;
18210;SDS011;9231;48.852;9.882;2023-04-25T12:00:41;3.77;;;2.90;;
18210;SDS011;9231;48.852;9.882;2023-04-25T12:03:08;2.90;;;2.17;;
18210;SDS011;9231;48.852;9.882;2023-04-25T12:05:35;5.20;;;2.87;;
18210;SDS011;9231;48.852;9.882;2023-04-25T12:08:09;5.20;;;2.73;;
18210;SDS011;9231;48.852;9.882;2023-04-25T12:10:37;3.50;;;2.73;;
18210;SDS011;9231;48.852;9.882;2023-04-25T12:13:18;5.13;;;3.00;;
18210;SDS011;9231;48.852;9.882;2023-04-25T12:15:45;2.67;;;2.47;;
18210;SDS011;9231;48.852;9.882;2023-04-25T12:18:11;3.60;;;3.10;;
18210;SDS011;9231;48.852;9.882;2023-04-25T12:20:38;5.00;;;3.30;;
18210;SDS011;9231;48.852;9.882;2023-04-25T12:23:05;6.47;;;4.40;;
18210;SDS011;9231;48.852;9.882;2023-04-25T12:25:35;6.33;;;4.03;;
18210;SDS011;9231;48.852;9.882;2023-04-25T12:28:13;5.20;;;3.73;;
18210;SDS011;9231;48.852;9.882;2023-04-25T12:30:54;4.17;;;3.23;;
18210;SDS011;9231;48.852;9.882;2023-04-25T12:33:21;3.30;;;3.00;;
18210;SDS011;9231;48.852;9.882;2023-04-25T12:35:47;5.57;;;4.30;;
18210;SDS011;9231;48.852;9.882;2023-04-25T12:38:20;5.23;;;3.47;;
18210;SDS011;9231;48.852;9.882;2023-04-25T12:40:46;4.00;;;3.30;;
18210;SDS011;9231;48.852;9.882;2023-04-25T12:43:13;4.80;;;3.20;;
18210;SDS011;9231;48.852;9.882;2023-04-25T12:45:39;4.10;;;3.50;;
18210;SDS011;9231;48.852;9.882;2023-04-25T12:48:07;6.23;;;3.53;;
18210;SDS011;9231;48.852;9.882;2023-04-25T12:50:34;5.40;;;2.53;;
18210;SDS011;9231;48.852;9.882;2023-04-25T12:53:00;4.80;;;3.70;;
18210;SDS011;9231;48.852;9.882;2023-04-25T12:55:27;5.30;;;2.80;;
18210;SDS011;9231;48.852;9.882;2023-04-25T12:57:53;4.60;;;3.50;;
18210;SDS011;9231;48.852;9.882;2023-04-25T13:00:20;5.07;;;3.33;;
18210;SDS011;9231;48.852;9.882;2023-04-25T13:02:46;4.70;;;3.23;;
18210;SDS011;9231;48.852;9.882;2023-04-25T13:05:14;3.37;;;2.67;;
18210;SDS011;9231;48.852;9.882;2023-04-25T13:07:41;3.60;;;2.90;;
18210;SDS011;9231;48.852;9.882;2023-04-25T13:10:07;2.90;;;2.23;;
18210;SDS011;9231;48.852;9.882;2023-04-25T13:12:34;3.73;;;2.80;;
18210;SDS011;9231;48.852;9.882;2023-04-25T13:15:01;5.87;;;2.90;;
18210;SDS011;9231;48.852;9.882;2023-04-25T13:17:27;3.67;;;2.43;;
18210;SDS011;9231;48.852;9.882;2023-04-25T13:19:54;5.10;;;3.33;;
18210;SDS011;9231;48.852;9.882;2023-04-25T13:22:21;3.77;;;3.23;;
18210;SDS011;9231;48.852;9.882;2023-04-25T13:24:48;4.40;;;3.23;;
18210;SDS011;9231;48.852;9.882;2023-04-25T13:27:14;4.83;;;3.67;;
18210;SDS011;9231;48.852;9.882;2023-04-25T13:29:41;6.97;;;4.20;;
18210;SDS011;9231;48.852;9.882;2023-04-25T13:32:08;5.93;;;4.03;;
18210;SDS011;9231;48.852;9.882;2023-04-25T13:34:35;6.00;;;3.97;;
18210;SDS011;9231;48.852;9.882;2023-04-25T13:37:01;5.70;;;3.73;;
18210;SDS011;9231;48.852;9.882;2023-04-25T13:39:29;9.47;;;4.80;;
18210;SDS011;9231;48.852;9.882;2023-04-25T13:41:55;7.50;;;5.50;;
18210;SDS011;9231;48.852;9.882;2023-04-25T13:44:22;7.77;;;5.20;;
18210;SDS011;9231;48.852;9.882;2023-04-25T13:46:48;7.07;;;4.40;;
18210;SDS011;9231;48.852;9.882;2023-04-25T13:49:15;6.47;;;4.77;;
18210;SDS011;9231;48.852;9.882;2023-04-25T13:51:41;10.07;;;4.50;;
18210;SDS011;9231;48.852;9.882;2023-04-25T13:54:08;5.60;;;3.93;;
18210;SDS011;9231;48.852;9.882;2023-04-25T13:56:36;4.70;;;4.20;;
18210;SDS011;9231;48.852;9.882;2023-04-25T13:59:02;5.13;;;4.10;;
18210;SDS011;9231;48.852;9.882;2023-04-25T14:01:29;8.43;;;5.23;;
18210;SDS011;9231;48.852;9.882;2023-04-25T14:03:56;5.93;;;4.03;;
18210;SDS011;9231;48.852;9.882;2023-04-25T14:06:22;4.53;;;4.13;;
18210;SDS011;9231;48.852;9.882;2023-04-25T14:08:49;6.50;;;4.33;;
18210;SDS011;9231;48.852;9.882;2023-04-25T14:11:15;11.17;;;5.67;;
18210;SDS011;9231;48.852;9.882;2023-04-25T14:13:44;16.53;;;9.33;;
18210;SDS011;9231;48.852;9.882;2023-04-25T14:16:11;6.80;;;4.53;;
18210;SDS011;9231;48.852;9.882;2023-04-25T14:18:37;4.57;;;4.13;;
18210;SDS011;9231;48.852;9.882;2023-04-25T14:21:03;7.73;;;4.17;;
18210;SDS011;9231;48.852;9.882;2023-04-25T14:23:31;12.93;;;8.77;;
18210;SDS011;9231;48.852;9.882;2023-04-25T14:26:00;22.03;;;11.47;;
18210;SDS011;9231;48.852;9.882;2023-04-25T14:28:27;25.37;;;12.57;;
18210;SDS011;9231;48.852;9.882;2023-04-25T14:30:55;6.47;;;4.43;;
18210;SDS011;9231;48.852;9.882;2023-04-25T14:33:21;7.67;;;5.20;;
18210;SDS011;9231;48.852;9.882;2023-04-25T14:35:48;7.13;;;5.23;;
18210;SDS011;9231;48.852;9.882;2023-04-25T14:38:15;7.63;;;5.70;;
18210;SDS011;9231;48.852;9.882;2023-04-25T14:40:41;5.07;;;4.50;;
18210;SDS011;9231;48.852;9.882;2023-04-25T14:43:08;7.30;;;5.20;;
18210;SDS011;9231;48.852;9.882;2023-04-25T14:45:34;6.90;;;4.60;;
18210;SDS011;9231;48.852;9.882;2023-04-25T14:48:02;6.83;;;4.90;;
18210;SDS011;9231;48.852;9.882;2023-04-25T14:50:28;6.83;;;5.13;;
18210;SDS011;9231;48.852;9.882;2023-04-25T14:52:55;6.40;;;5.10;;
18210;SDS011;9231;48.852;9.882;2023-04-25T14:55:25;6.13;;;4.77;;
18210;SDS011;9231;48.852;9.882;2023-04-25T14:57:52;6.30;;;4.13;;
18210;SDS011;9231;48.852;9.882;2023-04-25T15:00:19;3.90;;;2.23;;
18210;SDS011;9231;48.852;9.882;2023-04-25T15:02:47;2.83;;;2.00;;